| time (UTC) | temp F | wind direction | speed knots | gust knots | rain 1hr in | rain 24hr in | rain mn in | humidity % | barometer mb |
| 20260507172213 | 67 | 99 | 2.6 | 3.5 | 0.00 | 0.00 | 0.00 | 49 | 1013.0 |
| 20260507171712 | 67 | 126 | 4.3 | 5.2 | 0.00 | 0.00 | 0.00 | 49 | 1013.0 |
| 20260507171245 | 67 | 112 | 4.3 | 5.2 | 0.00 | 0.00 | 0.00 | 48 | 1013.0 |
| 20260507171212 | 67 | 112 | 4.3 | 5.2 | 0.00 | 0.00 | 0.00 | 48 | 1013.0 |
| 20260507170712 | 67 | 91 | 4.3 | 5.2 | 0.00 | 0.00 | 0.00 | 49 | 1012.0 |
| 20260507170244 | 67 | 65 | 3.5 | 5.2 | 0.00 | 0.00 | 0.00 | 49 | 1012.0 |
| 20260507170212 | 67 | 65 | 3.5 | 5.2 | 0.00 | 0.00 | 0.00 | 49 | 1012.0 |
| 20260507165747 | 67 | 100 | 4.3 | 5.2 | 0.00 | 0.00 | 0.00 | 48 | 1012.0 |
| 20260507165713 | 67 | 100 | 4.3 | 5.2 | 0.00 | 0.00 | 0.00 | 48 | 1012.0 |
| 20260507165213 | 67 | 109 | 2.6 | 4.3 | 0.00 | 0.00 | 0.00 | 48 | 1012.0 |
| 20260507164713 | 68 | 92 | 3.5 | 4.3 | 0.00 | 0.00 | 0.00 | 48 | 1012.0 |
| 20260507164213 | 68 | 93 | 3.5 | 5.2 | 0.00 | 0.00 | 0.00 | 48 | 1012.0 |
| 20260507163744 | 67 | 90 | 3.5 | 3.5 | 0.00 | 0.00 | 0.00 | 48 | 1012.0 |
| 20260507163712 | 67 | 90 | 3.5 | 3.5 | 0.00 | 0.00 | 0.00 | 48 | 1012.0 |
| 20260507163411 | 68 | 99 | 1.7 | 2.6 | 0.00 | 0.00 | 0.00 | 48 | 1012.0 |
| 20260507163340 | 68 | 99 | 1.7 | 2.6 | 0.00 | 0.00 | 0.00 | 48 | 1012.0 |
| 20260507162837 | 68 | 125 | 5.2 | 7.0 | 0.00 | 0.00 | 0.00 | 48 | 1012.0 |
| 20260507162337 | 68 | 63 | 2.6 | 5.2 | 0.00 | 0.00 | 0.00 | 48 | 1012.0 |
| 20260507161914 | 68 | 61 | 3.5 | 3.5 | 0.00 | 0.00 | 0.00 | 48 | 1012.0 |
| 20260507161839 | 68 | 61 | 3.5 | 3.5 | 0.00 | 0.00 | 0.00 | 48 | 1012.0 |
| 20260507161414 | 68 | 85 | 5.2 | 5.2 | 0.00 | 0.00 | 0.00 | 48 | 1012.0 |
| 20260507161338 | 68 | 85 | 5.2 | 5.2 | 0.00 | 0.00 | 0.00 | 48 | 1012.0 |
| 20260507160909 | 68 | 90 | 4.3 | 5.2 | 0.00 | 0.00 | 0.00 | 48 | 1013.0 |
| 20260507160838 | 68 | 90 | 4.3 | 5.2 | 0.00 | 0.00 | 0.00 | 48 | 1013.0 |
| 20260507160337 | 68 | 101 | 6.1 | 7.0 | 0.00 | 0.00 | 0.00 | 48 | 1013.0 |
| 20260507155837 | 68 | 63 | 5.2 | 6.1 | 0.00 | 0.00 | 0.00 | 49 | 1013.0 |
| 20260507155338 | 68 | 129 | 3.5 | 7.0 | 0.00 | 0.00 | 0.00 | 48 | 1012.0 |
| 20260507154838 | 68 | 108 | 3.5 | 5.2 | 0.00 | 0.00 | 0.00 | 47 | 1012.0 |
| 20260507154338 | 68 | 82 | 4.3 | 5.2 | 0.00 | 0.00 | 0.00 | 49 | 1012.0 |
| 20260507153917 | 67 | 115 | 5.2 | 7.8 | 0.00 | 0.00 | 0.00 | 49 | 1012.0 |
| 20260507153838 | 67 | 115 | 5.2 | 7.8 | 0.00 | 0.00 | 0.00 | 49 | 1012.0 |
| 20260507153543 | 68 | 59 | 3.5 | 5.2 | 0.00 | 0.00 | 0.00 | 49 | 1012.0 |
| 20260507153339 | 68 | 59 | 3.5 | 5.2 | 0.00 | 0.00 | 0.00 | 49 | 1012.0 |
| 20260507153138 | 68 | 99 | 5.2 | 5.2 | 0.00 | 0.00 | 0.00 | 49 | 1012.0 |
| 20260507152838 | 68 | 99 | 5.2 | 5.2 | 0.00 | 0.00 | 0.00 | 49 | 1012.0 |
| 20260507152435 | 68 | 28 | 2.6 | 2.6 | 0.00 | 0.00 | 0.00 | 48 | 1013.0 |
| 20260507152338 | 68 | 96 | 4.3 | 7.8 | 0.00 | 0.00 | 0.00 | 47 | 1013.0 |
| 20260507151837 | 68 | 28 | 2.6 | 2.6 | 0.00 | 0.00 | 0.00 | 48 | 1013.0 |
| 20260507150912 | 68 | 133 | 4.3 | 5.2 | 0.00 | 0.00 | 0.00 | 49 | 1012.0 |
| 20260507150837 | 68 | 133 | 4.3 | 5.2 | 0.00 | 0.00 | 0.00 | 49 | 1012.0 |
| 20260507150339 | 68 | 104 | 2.6 | 7.0 | 0.00 | 0.00 | 0.00 | 49 | 1012.0 |
| 20260507145838 | 68 | 94 | 1.7 | 3.5 | 0.00 | 0.00 | 0.00 | 48 | 1012.0 |
| 20260507145339 | 68 | 83 | 3.5 | 5.2 | 0.00 | 0.00 | 0.00 | 47 | 1012.0 |
| 20260507144913 | 68 | 106 | 2.6 | 6.1 | 0.00 | 0.00 | 0.00 | 49 | 1012.0 |
| 20260507144837 | 68 | 106 | 2.6 | 6.1 | 0.00 | 0.00 | 0.00 | 49 | 1012.0 |
| 20260507144337 | 68 | 27 | 3.5 | 5.2 | 0.00 | 0.00 | 0.00 | 48 | 1012.0 |
| 20260507143840 | 68 | 120 | 5.2 | 7.0 | 0.00 | 0.00 | 0.00 | 49 | 1012.0 |
| 20260507143338 | 67 | 127 | 5.2 | 6.1 | 0.00 | 0.00 | 0.00 | 47 | 1012.0 |
| 20260507142908 | 68 | 96 | 5.2 | 7.8 | 0.00 | 0.00 | 0.00 | 50 | 1012.0 |
| 20260507142837 | 68 | 96 | 5.2 | 7.8 | 0.00 | 0.00 | 0.00 | 50 | 1012.0 |
| 20260507142338 | 68 | 128 | 2.6 | 4.3 | 0.00 | 0.00 | 0.00 | 48 | 1013.0 |
| 20260507141838 | 68 | 43 | 3.5 | 4.3 | 0.00 | 0.00 | 0.00 | 48 | 1013.0 |
| 20260507141434 | 68 | 58 | 2.6 | 8.7 | 0.00 | 0.00 | 0.00 | 49 | 1013.0 |
| 20260507141338 | 68 | 58 | 2.6 | 8.7 | 0.00 | 0.00 | 0.00 | 49 | 1013.0 |
| 20260507140837 | 68 | 39 | 3.5 | 3.5 | 0.00 | 0.00 | 0.00 | 48 | 1013.0 |
| 20260507140339 | 68 | 96 | 4.3 | 6.1 | 0.00 | 0.00 | 0.00 | 50 | 1013.0 |
| 20260507135838 | 68 | 124 | 1.7 | 5.2 | 0.00 | 0.00 | 0.00 | 51 | 1013.0 |
| 20260507135338 | 68 | 82 | 2.6 | 4.3 | 0.00 | 0.00 | 0.00 | 50 | 1014.0 |
| 20260507134837 | 67 | 61 | 1.7 | 3.5 | 0.00 | 0.00 | 0.00 | 49 | 1014.0 |
| 20260507133839 | 68 | 102 | 4.3 | 4.3 | 0.00 | 0.00 | 0.00 | 50 | 1014.0 |
| 20260507133338 | 68 | 77 | 2.6 | 7.0 | 0.00 | 0.00 | 0.00 | 50 | 1014.0 |
| 20260507132838 | 67 | 96 | 3.5 | 5.2 | 0.00 | 0.00 | 0.00 | 51 | 1014.0 |
| 20260507132418 | 68 | 91 | 2.6 | 5.2 | 0.00 | 0.05 | 0.00 | 51 | 1014.0 |
| 20260507132338 | 68 | 91 | 2.6 | 5.2 | 0.00 | 0.05 | 0.00 | 51 | 1014.0 |
| 20260507131837 | 67 | 82 | 3.5 | 4.3 | 0.00 | 0.05 | 0.00 | 50 | 1014.0 |
| 20260507131424 | 67 | 113 | 6.1 | 5.2 | 0.00 | 0.05 | 0.00 | 53 | 1014.0 |
| 20260507131339 | 67 | 113 | 6.1 | 5.2 | 0.00 | 0.05 | 0.00 | 53 | 1014.0 |
| 20260507130910 | 67 | 59 | 3.5 | 5.2 | 0.00 | 0.05 | 0.00 | 52 | 1013.0 |
| 20260507130838 | 67 | 59 | 3.5 | 5.2 | 0.00 | 0.05 | 0.00 | 52 | 1013.0 |
| 20260507130414 | 67 | 84 | 5.2 | 7.0 | 0.00 | 0.05 | 0.00 | 53 | 1013.0 |
| 20260507130338 | 67 | 84 | 5.2 | 7.0 | 0.00 | 0.05 | 0.00 | 53 | 1013.0 |
| 20260507124839 | 67 | 87 | 3.5 | 6.1 | 0.00 | 0.05 | 0.00 | 51 | 1014.0 |
| 20260507124518 | 67 | 108 | 5.2 | 7.0 | 0.00 | 0.05 | 0.00 | 53 | 1014.0 |
| 20260507124412 | 67 | 108 | 5.2 | 7.0 | 0.00 | 0.05 | 0.00 | 53 | 1014.0 |
| 20260507124338 | 67 | 108 | 5.2 | 7.0 | 0.00 | 0.05 | 0.00 | 53 | 1014.0 |
| 20260507123838 | 67 | 45 | 2.6 | 3.5 | 0.00 | 0.05 | 0.00 | 54 | 1014.0 |
| 20260507123338 | 66 | 109 | 3.5 | 5.2 | 0.00 | 0.05 | 0.00 | 53 | 1014.0 |
| 20260507122910 | 66 | 113 | 2.6 | 5.2 | 0.00 | 0.05 | 0.00 | 54 | 1014.0 |
| 20260507122837 | 66 | 113 | 2.6 | 5.2 | 0.00 | 0.05 | 0.00 | 54 | 1014.0 |
| 20260507122339 | 65 | 97 | 4.3 | 6.1 | 0.00 | 0.05 | 0.00 | 54 | 1014.0 |
| 20260507121837 | 65 | 37 | 2.6 | 6.1 | 0.00 | 0.05 | 0.00 | 54 | 1014.0 |
| 20260507121337 | 66 | 16 | 1.7 | 3.5 | 0.00 | 0.05 | 0.00 | 54 | 1014.0 |
| 20260507120838 | 66 | 105 | 3.5 | 6.1 | 0.00 | 0.05 | 0.00 | 54 | 1014.0 |
| 20260507120338 | 65 | 79 | 3.5 | 5.2 | 0.00 | 0.05 | 0.00 | 53 | 1014.0 |
| 20260507115912 | 65 | 95 | 2.6 | 3.5 | 0.00 | 0.05 | 0.00 | 54 | 1014.0 |
| 20260507115837 | 65 | 95 | 2.6 | 3.5 | 0.00 | 0.05 | 0.00 | 54 | 1014.0 |
| 20260507114918 | 65 | 51 | 2.6 | 5.2 | 0.00 | 0.05 | 0.00 | 54 | 1015.0 |
| 20260507114839 | 65 | 51 | 2.6 | 5.2 | 0.00 | 0.05 | 0.00 | 54 | 1015.0 |
| 20260507114338 | 65 | 50 | 3.5 | 5.2 | 0.00 | 0.05 | 0.00 | 52 | 1015.0 |
| 20260507113337 | 66 | 149 | 1.7 | 3.5 | 0.00 | 0.05 | 0.00 | 51 | 1015.0 |
| 20260507112911 | 66 | 347 | 2.6 | 2.6 | 0.00 | 0.05 | 0.00 | 52 | 1015.0 |
| 20260507112838 | 66 | 347 | 2.6 | 2.6 | 0.00 | 0.05 | 0.00 | 52 | 1015.0 |
| 20260507112338 | 66 | 100 | 3.5 | 3.5 | 0.00 | 0.05 | 0.00 | 53 | 1015.0 |
| 20260507111838 | 66 | 134 | 3.5 | 3.5 | 0.00 | 0.05 | 0.00 | 54 | 1015.0 |
| 20260507111338 | 66 | 86 | 3.5 | 5.2 | 0.00 | 0.05 | 0.00 | 54 | 1015.0 |
| 20260507110837 | 65 | 99 | 1.7 | 3.5 | 0.00 | 0.05 | 0.00 | 54 | 1015.0 |
| 20260507110337 | 65 | 95 | 4.3 | 3.5 | 0.00 | 0.05 | 0.00 | 54 | 1015.0 |
| 20260507105838 | 64 | 271 | 1.7 | 5.2 | 0.00 | 0.05 | 0.00 | 53 | 1015.0 |
| 20260507105338 | 64 | 60 | 2.6 | 4.3 | 0.00 | 0.05 | 0.00 | 55 | 1016.0 |
| 20260507104341 | 64 | 87 | 1.7 | 2.6 | 0.00 | 0.05 | 0.00 | 61 | 1016.0 |
| 20260507104338 | 64 | 87 | 1.7 | 2.6 | 0.00 | 0.05 | 0.00 | 61 | 1016.0 |
| 20260507103838 | 63 | 12 | 2.6 | 3.5 | 0.00 | 0.05 | 0.00 | 60 | 1016.0 |
| 20260507103410 | 63 | 178 | 0.9 | 0.9 | 0.00 | 0.05 | 0.00 | 61 | 1016.0 |
| 20260507103338 | 63 | 178 | 0.9 | 0.9 | 0.00 | 0.05 | 0.00 | 61 | 1016.0 |
| 20260507102838 | 63 | 351 | 3.5 | 3.5 | 0.00 | 0.05 | 0.00 | 61 | 1016.0 |
| 20260507102338 | 63 | 22 | 1.7 | 3.5 | 0.00 | 0.05 | 0.00 | 60 | 1016.0 |
| 20260507101337 | 62 | 343 | 1.7 | 2.6 | 0.00 | 0.05 | 0.00 | 58 | 1016.0 |
| 20260507100839 | 62 | 6 | 1.7 | 3.5 | 0.00 | 0.05 | 0.00 | 59 | 1016.0 |
| 20260507100338 | 62 | 74 | 1.7 | 2.6 | 0.00 | 0.05 | 0.00 | 59 | 1016.0 |
| 20260507095838 | 63 | 158 | 1.7 | 5.2 | 0.00 | 0.05 | 0.00 | 59 | 1016.0 |
| 20260507094837 | 63 | 60 | 2.6 | 1.7 | 0.00 | 0.05 | 0.00 | 59 | 1015.0 |
| 20260507094508 | 63 | 322 | 2.6 | 4.3 | 0.00 | 0.05 | 0.00 | 59 | 1015.0 |
| 20260507094337 | 63 | 322 | 2.6 | 4.3 | 0.00 | 0.05 | 0.00 | 59 | 1015.0 |
| 20260507093914 | 63 | 95 | 1.7 | 3.5 | 0.00 | 0.05 | 0.00 | 60 | 1016.0 |
| 20260507093838 | 63 | 95 | 1.7 | 3.5 | 0.00 | 0.05 | 0.00 | 60 | 1016.0 |
| 20260507093411 | 62 | 330 | 1.7 | 0.9 | 0.00 | 0.05 | 0.00 | 62 | 1016.0 |
| 20260507093338 | 62 | 330 | 1.7 | 0.9 | 0.00 | 0.05 | 0.00 | 62 | 1016.0 |
| 20260507092909 | 62 | 99 | 0.9 | 2.6 | 0.00 | 0.05 | 0.00 | 57 | 1016.0 |
| 20260507092837 | 62 | 99 | 0.9 | 2.6 | 0.00 | 0.05 | 0.00 | 57 | 1016.0 |
| 20260507092409 | 61 | 141 | 2.6 | 3.5 | 0.00 | 0.05 | 0.00 | 63 | 1016.0 |
| 20260507092337 | 61 | 141 | 2.6 | 3.5 | 0.00 | 0.05 | 0.00 | 63 | 1016.0 |
| 20260507091839 | 61 | 104 | 3.5 | 5.2 | 0.00 | 0.05 | 0.00 | 64 | 1016.0 |
| 20260507091338 | 62 | 223 | 1.7 | 3.5 | 0.00 | 0.05 | 0.00 | 66 | 1016.0 |
| 20260507090838 | 62 | 164 | 2.6 | 1.7 | 0.00 | 0.05 | 0.00 | 68 | 1016.0 |
| 20260507090337 | 61 | 123 | 1.7 | 1.7 | 0.00 | 0.05 | 0.00 | 68 | 1016.0 |
| 20260507085839 | 61 | 87 | 0.9 | 2.6 | 0.00 | 0.05 | 0.00 | 68 | 1016.0 |
| 20260507085339 | 62 | 104 | 2.6 | 5.2 | 0.00 | 0.05 | 0.00 | 69 | 1016.0 |
| 20260507084838 | 62 | 128 | 1.7 | 2.6 | 0.00 | 0.05 | 0.00 | 70 | 1016.0 |
| 20260507084338 | 61 | 226 | 0.9 | 0.9 | 0.00 | 0.05 | 0.00 | 71 | 1016.0 |
| 20260507083837 | 60 | 130 | 1.7 | 2.6 | 0.00 | 0.05 | 0.00 | 72 | 1016.0 |
| 20260507083337 | 60 | 86 | 1.7 | 2.6 | 0.00 | 0.05 | 0.00 | 68 | 1016.0 |
| 20260507082845 | 60 | 53 | 1.7 | 1.7 | 0.00 | 0.05 | 0.00 | 73 | 1016.0 |
| 20260507082338 | 61 | 76 | 1.7 | 3.5 | 0.00 | 0.05 | 0.00 | 75 | 1016.0 |
| 20260507081839 | 60 | 112 | 2.6 | 4.3 | 0.00 | 0.05 | 0.00 | 76 | 1016.0 |
| 20260507080838 | 60 | 282 | 0.9 | 0.9 | 0.00 | 0.05 | 0.00 | 78 | 1016.0 |
| 20260507080337 | 59 | 64 | 0.9 | 1.7 | 0.00 | 0.05 | 0.00 | 78 | 1016.0 |
| 20260507075337 | 59 | 95 | 2.6 | 3.5 | 0.00 | 0.05 | 0.00 | 80 | 1017.0 |
| 20260507074838 | 59 | 80 | 1.7 | 2.6 | 0.00 | 0.05 | 0.00 | 81 | 1017.0 |
| 20260507074338 | 58 | 158 | 1.7 | 1.7 | 0.00 | 0.05 | 0.00 | 83 | 1017.0 |
| 20260507073837 | 58 | 90 | 2.6 | 2.6 | 0.00 | 0.05 | 0.00 | 84 | 1016.0 |
| 20260507073337 | 58 | 166 | 0.9 | 2.6 | 0.00 | 0.05 | 0.00 | 86 | 1016.0 |
| 20260507072839 | 58 | 158 | 1.7 | 1.7 | 0.00 | 0.05 | 0.00 | 87 | 1016.0 |
| 20260507072337 | 57 | 158 | 1.7 | 1.7 | 0.00 | 0.05 | 0.00 | 87 | 1017.0 |
| 20260507071839 | 57 | 127 | 0.9 | 1.7 | 0.00 | 0.05 | 0.00 | 88 | 1017.0 |
| 20260507071337 | 56 | 204 | 0.9 | 0.0 | 0.00 | 0.05 | 0.00 | 89 | 1017.0 |
| 20260507070838 | 56 | 103 | 0.0 | 1.7 | 0.00 | 0.05 | 0.00 | 89 | 1017.0 |
| 20260507070339 | 55 | 90 | 0.9 | 1.7 | 0.00 | 0.05 | 0.00 | 88 | 1017.0 |
| 20260507065837 | 55 | 108 | 1.7 | 2.6 | 0.00 | 0.05 | 0.00 | 89 | 1017.0 |
| 20260507065337 | 55 | 82 | 0.9 | 0.0 | 0.00 | 0.05 | 0.00 | 89 | 1017.0 |
| 20260507064839 | 54 | 116 | 0.9 | 0.9 | 0.00 | 0.05 | 0.00 | 89 | 1017.0 |
| 20260507064338 | 54 | 22 | 0.9 | 0.0 | 0.00 | 0.05 | 0.00 | 89 | 1017.0 |
| 20260507063838 | 53 | 0 | 1.7 | 0.9 | 0.00 | 0.05 | 0.00 | 90 | 1017.0 |
| 20260507063338 | 53 | 25 | 0.0 | 0.0 | 0.00 | 0.05 | 0.00 | 90 | 1017.0 |
| 20260507062337 | 52 | 339 | 0.0 | 0.0 | 0.00 | 0.05 | 0.00 | 89 | 1017.0 |
| 20260507061837 | 52 | 338 | 0.0 | 0.0 | 0.00 | 0.05 | 0.00 | 89 | 1017.0 |
| 20260507061157 | 52 | 86 | 0.9 | 1.7 | 0.00 | 0.05 | 0.00 | 86 | 1017.0 |
| 20260507061102 | 52 | 86 | 0.9 | 1.7 | 0.00 | 0.05 | 0.00 | 86 | 1017.0 |
| 20260507060838 | 52 | 86 | 0.9 | 1.7 | 0.00 | 0.05 | 0.00 | 86 | 1017.0 |
| 20260507060338 | 52 | 112 | 0.9 | 0.9 | 0.00 | 0.05 | 0.00 | 89 | 1017.0 |
| 20260507054842 | 52 | 134 | 0.9 | 0.9 | 0.00 | 0.05 | 0.00 | 91 | 1017.0 |
| 20260507052342 | 46 | 153 | 1.7 | 1.7 | 0.00 | 0.05 | 0.00 | 94 | 1016.0 |
| 20260507051839 | 45 | 158 | 0.9 | 0.9 | 0.00 | 0.05 | 0.00 | 94 | 1016.0 |
| 20260507050844 | 45 | 112 | 0.0 | 0.0 | 0.00 | 0.05 | 0.00 | 93 | 1016.0 |
| 20260507045341 | 45 | 158 | 0.0 | 0.0 | 0.00 | 0.05 | 0.00 | 93 | 1016.0 |
| 20260507044840 | 45 | 158 | 0.9 | 0.9 | 0.00 | 0.05 | 0.00 | 93 | 1016.0 |
| 20260507043841 | 45 | 112 | 0.0 | 0.0 | 0.00 | 0.05 | 0.00 | 92 | 1016.0 |
| 20260507043339 | 45 | 112 | 0.0 | 0.0 | 0.00 | 0.05 | 0.00 | 92 | 1016.0 |
| 20260507041340 | 46 | 90 | 0.0 | 0.0 | 0.00 | 0.05 | 0.00 | 92 | 1016.0 |
| 20260507040339 | 46 | 292 | 0.9 | 1.7 | 0.00 | 0.05 | 0.00 | 92 | 1015.0 |
| 20260507035342 | 47 | 160 | 1.7 | 2.6 | 0.00 | 0.05 | 0.00 | 91 | 1015.0 |
| 20260507034840 | 47 | 172 | 2.6 | 3.5 | 0.00 | 0.05 | 0.00 | 91 | 1015.0 |
| 20260507033432 | 46 | 168 | 1.7 | 2.6 | 0.00 | 0.05 | 0.00 | 91 | 1016.0 |
| 20260507033340 | 46 | 168 | 1.7 | 2.6 | 0.00 | 0.05 | 0.00 | 91 | 1016.0 |
| 20260507032339 | 46 | 158 | 1.7 | 1.7 | 0.00 | 0.05 | 0.00 | 91 | 1016.0 |
| 20260507031340 | 46 | 116 | 0.9 | 1.7 | 0.00 | 0.05 | 0.00 | 90 | 934.0 |
| 20260507030841 | 47 | 158 | 0.0 | 0.0 | 0.00 | 0.05 | 0.00 | 90 | 934.0 |
| 20260507030346 | 47 | 158 | 0.0 | 0.0 | 0.00 | 0.05 | 0.00 | 90 | 934.0 |
| 20260507025341 | 47 | 158 | 0.9 | 1.7 | 0.00 | 0.05 | 0.00 | 90 | 1016.0 |
| 20260507024842 | 47 | 158 | 0.9 | 1.7 | 0.00 | 0.05 | 0.00 | 90 | 1016.0 |
| 20260507023339 | 47 | 158 | 0.0 | 0.0 | 0.00 | 0.05 | 0.00 | 89 | 1016.0 |
| 20260507022840 | 47 | 158 | 0.0 | 0.0 | 0.00 | 0.05 | 0.00 | 89 | 1016.0 |
| 20260507022338 | 47 | 158 | 0.0 | 0.0 | 0.00 | 0.05 | 0.00 | 89 | 1016.0 |
| 20260507021340 | 47 | 158 | 0.0 | 0.0 | 0.00 | 0.05 | 0.00 | 88 | 1016.0 |
| 20260507020841 | 47 | 158 | 0.0 | 0.0 | 0.00 | 0.05 | 0.00 | 88 | 1016.0 |
| 20260507020341 | 47 | 158 | 0.0 | 0.0 | 0.00 | 0.05 | 0.00 | 88 | 1016.0 |
| 20260507014840 | 48 | 158 | 0.0 | 0.0 | 0.00 | 0.05 | 0.00 | 88 | 1016.0 |
| 20260507014340 | 48 | 158 | 0.9 | 0.9 | 0.00 | 0.05 | 0.00 | 87 | 1016.0 |
| 20260507013841 | 48 | 158 | 1.7 | 1.7 | 0.00 | 0.05 | 0.00 | 87 | 1016.0 |
| 20260507013340 | 48 | 169 | 1.7 | 1.7 | 0.00 | 0.05 | 0.00 | 87 | 1016.0 |
| 20260507012840 | 48 | 180 | 0.9 | 0.9 | 0.00 | 0.05 | 0.00 | 87 | 1016.0 |
| 20260507012342 | 48 | 135 | 0.0 | 0.0 | 0.00 | 0.05 | 0.00 | 86 | 1016.0 |
| 20260507011840 | 48 | 112 | 0.0 | 0.0 | 0.00 | 0.05 | 0.00 | 86 | 1016.0 |
| 20260507010338 | 49 | 194 | 0.9 | 1.7 | 0.00 | 0.05 | 0.00 | 86 | 1016.0 |
| 20260507005842 | 49 | 252 | 2.6 | 3.5 | 0.00 | 0.05 | 0.00 | 85 | 1016.0 |
| 20260507004843 | 50 | 248 | 2.6 | 3.5 | 0.00 | 0.05 | 0.00 | 85 | 1017.0 |
| 20260507004339 | 50 | 248 | 3.5 | 3.5 | 0.00 | 0.05 | 0.00 | 85 | 1017.0 |
| 20260507003915 | 50 | 248 | 2.6 | 3.5 | 0.00 | 0.05 | 0.00 | 85 | 1016.0 |
| 20260507003841 | 50 | 248 | 2.6 | 3.5 | 0.00 | 0.05 | 0.00 | 85 | 1016.0 |
| 20260507003342 | 50 | 248 | 3.5 | 3.5 | 0.00 | 0.05 | 0.00 | 84 | 1016.0 |
| 20260507002841 | 50 | 248 | 2.6 | 3.5 | 0.00 | 0.05 | 0.00 | 84 | 1016.0 |
| 20260507002342 | 50 | 252 | 2.6 | 3.5 | 0.00 | 0.05 | 0.00 | 84 | 1017.0 |
| 20260507001839 | 50 | 248 | 2.6 | 2.6 | 0.00 | 0.05 | 0.00 | 84 | 1017.0 |
| 20260507001342 | 50 | 251 | 2.6 | 3.5 | 0.00 | 0.05 | 0.00 | 83 | 1017.0 |
| 20260507000343 | 50 | 248 | 1.7 | 2.6 | 0.00 | 0.05 | 0.00 | 82 | 1017.0 |
| 20260506235341 | 51 | 251 | 2.6 | 2.6 | 0.00 | 0.05 | 0.00 | 82 | 1016.0 |
| 20260506234342 | 51 | 248 | 2.6 | 2.6 | 0.00 | 0.05 | 0.00 | 81 | 1016.0 |
| 20260506233840 | 51 | 248 | 1.7 | 2.6 | 0.00 | 0.05 | 0.00 | 80 | 1016.0 |
| 20260506233341 | 52 | 252 | 2.6 | 2.6 | 0.00 | 0.05 | 0.00 | 80 | 1016.0 |
| 20260506231343 | 52 | 248 | 2.6 | 3.5 | 0.00 | 0.05 | 0.00 | 78 | 1017.0 |
| 20260506230843 | 53 | 248 | 2.6 | 3.5 | 0.00 | 0.05 | 0.00 | 78 | 1017.0 |
| 20260506230340 | 53 | 251 | 3.5 | 3.5 | 0.00 | 0.05 | 0.00 | 77 | 1017.0 |
| 20260506225843 | 53 | 248 | 2.6 | 3.5 | 0.00 | 0.05 | 0.00 | 77 | 1017.0 |
| 20260506224840 | 54 | 254 | 2.6 | 3.5 | 0.00 | 0.05 | 0.00 | 77 | 1017.0 |
| 20260506224340 | 54 | 248 | 1.7 | 1.7 | 0.00 | 0.05 | 0.00 | 76 | 1017.0 |
| 20260506223841 | 54 | 248 | 1.7 | 2.6 | 0.00 | 0.05 | 0.00 | 76 | 1017.0 |
| 20260506222340 | 54 | 248 | 2.6 | 3.5 | 0.00 | 0.05 | 0.00 | 75 | 1017.0 |
| 20260506221839 | 54 | 248 | 2.6 | 4.3 | 0.00 | 0.05 | 0.00 | 74 | 1017.0 |
| 20260506221351 | 54 | 257 | 3.5 | 3.5 | 0.00 | 0.05 | 0.00 | 74 | 1017.0 |
| 20260506215838 | 55 | 250 | 2.6 | 4.3 | 0.00 | 0.05 | 0.05 | 74 | 1017.0 |
| 20260506215343 | 55 | 248 | 2.6 | 5.2 | 0.00 | 0.05 | 0.05 | 73 | 1017.0 |
| 20260506213842 | 55 | 250 | 2.6 | 3.5 | 0.00 | 0.05 | 0.05 | 73 | 1016.0 |
| 20260506213343 | 55 | 266 | 3.5 | 5.2 | 0.00 | 0.05 | 0.05 | 73 | 1016.0 |
| 20260506212840 | 55 | 273 | 3.5 | 3.5 | 0.00 | 0.05 | 0.05 | 73 | 1016.0 |
| 20260506210839 | 55 | 248 | 4.3 | 5.2 | 0.00 | 0.05 | 0.05 | 73 | 1016.0 |
| 20260506210339 | 55 | 248 | 5.2 | 5.2 | 0.00 | 0.05 | 0.05 | 73 | 1016.0 |
| 20260506205844 | 55 | 252 | 4.3 | 5.2 | 0.00 | 0.05 | 0.05 | 73 | 1016.0 |
| 20260506205342 | 55 | 258 | 3.5 | 3.5 | 0.00 | 0.05 | 0.05 | 73 | 1016.0 |
| 20260506204841 | 55 | 270 | 3.5 | 3.5 | 0.00 | 0.05 | 0.05 | 72 | 1016.0 |
| 20260506203343 | 55 | 266 | 3.5 | 4.3 | 0.00 | 0.05 | 0.05 | 72 | 1016.0 |
| 20260506202340 | 55 | 249 | 2.6 | 5.2 | 0.00 | 0.05 | 0.05 | 72 | 1015.0 |
| 20260506201843 | 55 | 254 | 4.3 | 7.0 | 0.00 | 0.05 | 0.05 | 71 | 1015.0 |
| 20260506201343 | 55 | 253 | 4.3 | 3.5 | 0.00 | 0.05 | 0.05 | 71 | 1015.0 |
| 20260506200943 | 55 | 232 | 4.3 | 5.2 | 0.00 | 0.05 | 0.05 | 71 | 1016.0 |
| 20260506200841 | 55 | 232 | 4.3 | 5.2 | 0.00 | 0.05 | 0.05 | 71 | 1016.0 |
| 20260506195843 | 55 | 248 | 3.5 | 3.5 | 0.00 | 0.05 | 0.05 | 70 | 1016.0 |
| 20260506195340 | 55 | 244 | 5.2 | 5.2 | 0.00 | 0.05 | 0.05 | 70 | 1016.0 |
| 20260506194840 | 55 | 259 | 4.3 | 7.0 | 0.00 | 0.05 | 0.05 | 69 | 1016.0 |
| 20260506193841 | 56 | 261 | 4.3 | 5.2 | 0.00 | 0.05 | 0.05 | 69 | 1016.0 |
| 20260506193343 | 56 | 300 | 5.2 | 7.8 | 0.00 | 0.05 | 0.05 | 69 | 1016.0 |
| 20260506192841 | 56 | 262 | 4.3 | 9.6 | 0.00 | 0.05 | 0.05 | 69 | 1016.0 |
| 20260506185839 | 56 | 313 | 3.5 | 4.3 | 0.00 | 0.05 | 0.05 | 68 | 1015.0 |
| 20260506184840 | 57 | 266 | 4.3 | 5.2 | 0.00 | 0.05 | 0.05 | 68 | 1015.0 |
| 20260506184344 | 57 | 257 | 5.2 | 7.0 | 0.00 | 0.05 | 0.05 | 68 | 1015.0 |
| 20260506183931 | 57 | 270 | 4.3 | 4.3 | 0.00 | 0.05 | 0.05 | 68 | 1015.0 |
| 20260506183840 | 57 | 270 | 4.3 | 4.3 | 0.00 | 0.05 | 0.05 | 68 | 1015.0 |
| 20260506183340 | 57 | 263 | 5.2 | 6.1 | 0.00 | 0.05 | 0.05 | 67 | 1015.0 |
| 20260506182917 | 57 | 248 | 4.3 | 7.8 | 0.00 | 0.05 | 0.05 | 67 | 1015.0 |
| 20260506182841 | 57 | 248 | 4.3 | 7.8 | 0.00 | 0.05 | 0.05 | 67 | 1015.0 |
| 20260506181840 | 57 | 268 | 6.1 | 8.7 | 0.00 | 0.05 | 0.05 | 67 | 1015.0 |
| 20260506180842 | 58 | 287 | 5.2 | 5.2 | 0.00 | 0.05 | 0.05 | 66 | 1015.0 |
| 20260506180339 | 58 | 292 | 7.0 | 9.6 | 0.00 | 0.05 | 0.05 | 66 | 1015.0 |
| 20260506175837 | 58 | 302 | 6.1 | 7.8 | 0.00 | 0.05 | 0.05 | 66 | 1015.0 |
| 20260506175337 | 59 | 277 | 4.3 | 5.2 | 0.00 | 0.05 | 0.05 | 65 | 1015.0 |
| 20260506174839 | 58 | 295 | 7.8 | 12.2 | 0.00 | 0.05 | 0.05 | 66 | 1015.0 |
| 20260506173838 | 59 | 322 | 8.7 | 9.6 | 0.00 | 0.05 | 0.05 | 65 | 1015.0 |
| 20260506173337 | 60 | 316 | 8.7 | 10.4 | 0.00 | 0.05 | 0.05 | 67 | 1015.0 |
| 20260506172912 | 60 | 338 | 6.1 | 7.8 | 0.00 | 0.05 | 0.05 | 68 | 1015.0 |
| 20260506172839 | 60 | 338 | 6.1 | 7.8 | 0.00 | 0.05 | 0.05 | 68 | 1015.0 |